Time;durP1;ratioP1;P1;durP2;ratioP2;P2;SDS_P1;SDS_P2;PMS_P1;PMS_P2;Temp;Humidity;BMP_temperature;BMP_pressure;BME280_temperature;BME280_humidity;BME280_pressure;Samples;Min_cycle;Max_cycle;Signal;HPM_P1;HPM_P2
2023/06/09 00:02:06;;;;;;;3.83;2.70;;;20.60;99.90;;;;;;5076314;28;20771;-74
2023/06/09 00:04:35;;;;;;;4.82;2.72;;;20.60;99.90;;;;;;5058806;28;20414;-75
2023/06/09 00:07:03;;;;;;;5.55;2.30;;;20.60;99.90;;;;;;5072892;28;20818;-75
2023/06/09 00:09:32;;;;;;;2.72;2.38;;;20.50;99.90;;;;;;5064346;28;20418;-74
2023/06/09 00:11:59;;;;;;;3.58;2.00;;;20.50;99.90;;;;;;5058572;28;20406;-74
2023/06/09 00:14:26;;;;;;;4.20;2.38;;;20.50;99.90;;;;;;5060211;28;20758;-74
2023/06/09 00:16:52;;;;;;;2.20;1.90;;;20.60;99.90;;;;;;5075392;28;21169;-74
2023/06/09 00:19:18;;;;;;;3.08;2.20;;;20.60;99.90;;;;;;5081572;28;20441;-74
2023/06/09 00:21:49;;;;;;;3.97;2.05;;;20.70;99.90;;;;;;5069303;28;20920;-74
2023/06/09 00:24:19;;;;;;;3.40;2.20;;;20.70;99.90;;;;;;5077215;28;21068;-74
2023/06/09 00:26:50;;;;;;;3.97;2.10;;;20.60;99.90;;;;;;5060725;28;20426;-74
2023/06/09 00:29:18;;;;;;;3.35;1.90;;;20.50;99.90;;;;;;5074372;28;20990;-74
2023/06/09 00:31:45;;;;;;;4.88;2.20;;;20.50;99.90;;;;;;5077277;28;20405;-74
2023/06/09 00:34:12;;;;;;;3.75;2.20;;;20.50;99.90;;;;;;5058368;28;20409;-74
2023/06/09 00:36:38;;;;;;;3.95;2.15;;;20.50;99.90;;;;;;5074741;28;20860;-74
2023/06/09 00:39:04;;;;;;;4.65;2.20;;;20.50;99.90;;;;;;5072313;28;20505;-74
2023/06/09 00:41:39;;;;;;;3.37;2.20;;;20.60;99.90;;;;;;5079310;28;20421;-74
2023/06/09 00:44:06;;;;;;;4.13;2.20;;;20.60;99.90;;;;;;5058167;28;20419;-74
2023/06/09 00:46:34;;;;;;;5.15;2.40;;;20.70;99.90;;;;;;5049907;28;20397;-74
2023/06/09 00:49:01;;;;;;;3.40;2.00;;;20.80;99.90;;;;;;5073084;28;20414;-74
2023/06/09 00:51:29;;;;;;;2.65;1.98;;;20.80;99.90;;;;;;5058238;28;20409;-73
2023/06/09 00:53:56;;;;;;;3.35;2.00;;;20.70;99.90;;;;;;5073942;28;20945;-74
2023/06/09 00:56:25;;;;;;;2.97;1.90;;;20.70;99.90;;;;;;5091904;28;20485;-73
2023/06/09 00:58:52;;;;;;;2.88;2.03;;;20.80;99.90;;;;;;5068366;28;20411;-73
2023/06/09 01:01:18;;;;;;;3.60;2.10;;;20.80;99.90;;;;;;5078204;28;20966;-74
2023/06/09 01:03:46;;;;;;;3.58;2.40;;;20.80;99.90;;;;;;5060641;28;20406;-73
2023/06/09 01:06:46;;;;;;;3.13;2.10;;;20.70;99.90;;;;;;5074544;28;20410;-74
2023/06/09 01:09:33;;;;;;;3.83;2.38;;;20.70;99.90;;;;;;5056016;28;20425;-73
2023/06/09 01:12:37;;;;;;;4.40;2.38;;;20.80;99.90;;;;;;5078892;28;20410;-74
2023/06/09 01:15:31;;;;;;;3.35;2.40;;;20.80;99.90;;;;;;5076872;28;20409;-73
2023/06/09 01:18:03;;;;;;;3.30;2.45;;;20.80;99.90;;;;;;5078471;28;20814;-74
2023/06/09 01:20:57;;;;;;;5.88;2.70;;;20.80;99.90;;;;;;5046130;28;20407;-74
2023/06/09 01:23:51;;;;;;;3.70;2.60;;;20.90;99.90;;;;;;5077323;28;20887;-74
2023/06/09 01:26:18;;;;;;;3.25;2.35;;;20.90;99.90;;;;;;5058153;28;20421;-74
2023/06/09 01:28:47;;;;;;;2.80;2.10;;;20.90;99.90;;;;;;5073493;28;20485;-74
2023/06/09 01:31:16;;;;;;;5.72;2.28;;;20.90;99.90;;;;;;5058460;28;20402;-75
2023/06/09 01:33:44;;;;;;;3.17;2.20;;;20.90;99.90;;;;;;5054875;28;20406;-75
2023/06/09 01:36:11;;;;;;;3.58;2.33;;;20.90;99.90;;;;;;5075681;28;20432;-75
2023/06/09 01:38:39;;;;;;;4.00;2.53;;;21.00;99.90;;;;;;5093500;28;20427;-75
2023/06/09 01:41:05;;;;;;;3.55;2.28;;;21.00;99.90;;;;;;5075226;28;20397;-74
2023/06/09 01:43:32;;;;;;;3.17;2.30;;;21.00;99.90;;;;;;5075926;28;20413;-75
2023/06/09 01:45:58;;;;;;;3.65;2.17;;;21.00;99.90;;;;;;5044832;28;20415;-75
2023/06/09 01:49:22;;;;;;;3.47;2.03;;;21.00;99.90;;;;;;5045799;28;21375;-75
2023/06/09 01:52:00;;;;;;;3.50;2.30;;;20.90;99.90;;;;;;5017706;28;20424;-75
2023/06/09 01:54:37;;;;;;;3.50;2.30;;;20.90;99.90;;;;;;5092829;28;20409;-75
2023/06/09 01:57:18;;;;;;;2.60;2.13;;;20.90;99.90;;;;;;5054842;28;20500;-74
2023/06/09 01:59:58;;;;;;;4.05;2.30;;;20.90;99.90;;;;;;5076720;28;20439;-75
2023/06/09 02:02:32;;;;;;;3.70;2.13;;;20.80;99.90;;;;;;5057753;28;20436;-74
2023/06/09 02:05:00;;;;;;;3.33;2.10;;;20.80;99.90;;;;;;5090416;27;20421;-74
2023/06/09 02:07:28;;;;;;;2.93;2.00;;;20.80;99.90;;;;;;5096873;27;20448;-74
2023/06/09 02:09:55;;;;;;;4.35;2.08;;;20.70;99.90;;;;;;5079082;28;20417;-74
2023/06/09 02:12:22;;;;;;;3.63;2.15;;;20.70;99.90;;;;;;5047926;28;20498;-74
2023/06/09 02:14:48;;;;;;;2.40;2.10;;;20.70;99.90;;;;;;5076884;28;20415;-75
2023/06/09 02:17:15;;;;;;;6.28;2.10;;;20.60;99.90;;;;;;5079834;28;20968;-75
2023/06/09 02:19:41;;;;;;;5.07;2.10;;;20.60;99.90;;;;;;5079291;28;20598;-75
2023/06/09 02:22:08;;;;;;;5.03;2.50;;;20.60;99.90;;;;;;5081625;28;20428;-74
2023/06/09 02:24:35;;;;;;;4.53;2.35;;;20.60;99.90;;;;;;5063996;28;20406;-75
2023/06/09 02:27:03;;;;;;;4.78;2.50;;;20.60;99.90;;;;;;5062824;28;20424;-75
2023/06/09 02:29:30;;;;;;;3.30;2.05;;;20.60;99.90;;;;;;5097275;27;20540;-74
2023/06/09 02:32:00;;;;;;;3.88;2.20;;;20.60;99.90;;;;;;5081259;28;20823;-74
2023/06/09 02:34:27;;;;;;;3.17;2.25;;;20.60;99.90;;;;;;5059470;28;20488;-74
2023/06/09 02:36:54;;;;;;;6.20;2.50;;;20.60;99.90;;;;;;5080080;28;20402;-74
2023/06/09 02:39:24;;;;;;;4.10;2.22;;;20.70;99.90;;;;;;5079829;28;20522;-73
2023/06/09 02:41:50;;;;;;;4.28;2.40;;;20.60;99.90;;;;;;5077693;28;20553;-74
2023/06/09 02:44:17;;;;;;;3.37;2.30;;;20.60;99.90;;;;;;5061945;28;20575;-74
2023/06/09 02:46:44;;;;;;;3.72;2.40;;;20.60;99.90;;;;;;5079342;28;20481;-73
2023/06/09 02:49:11;;;;;;;4.80;2.38;;;20.60;99.90;;;;;;5046024;28;20429;-74
2023/06/09 02:51:38;;;;;;;3.25;2.13;;;20.50;99.90;;;;;;5077106;28;20464;-73
2023/06/09 02:54:04;;;;;;;3.55;2.05;;;20.50;99.90;;;;;;5072769;28;20829;-74
2023/06/09 02:56:31;;;;;;;4.22;2.30;;;20.50;99.90;;;;;;5079857;28;20501;-73
2023/06/09 02:58:57;;;;;;;3.30;2.07;;;20.60;99.90;;;;;;5044729;28;20410;-74
2023/06/09 03:01:23;;;;;;;4.15;2.28;;;20.70;99.90;;;;;;5044382;28;20403;-74
2023/06/09 03:03:50;;;;;;;4.45;2.25;;;20.70;99.90;;;;;;5044357;28;20953;-74
2023/06/09 03:06:19;;;;;;;3.45;2.20;;;20.70;99.90;;;;;;5080294;28;20408;-74
2023/06/09 03:08:46;;;;;;;2.88;2.20;;;20.70;99.90;;;;;;5075459;28;20408;-73
2023/06/09 03:11:12;;;;;;;3.17;2.20;;;20.70;99.90;;;;;;5063906;28;20400;-73
2023/06/09 03:13:38;;;;;;;4.35;2.20;;;20.80;99.90;;;;;;5096143;27;20408;-73
2023/06/09 03:16:06;;;;;;;3.97;2.28;;;20.80;99.90;;;;;;5059488;28;20992;-74
2023/06/09 03:18:32;;;;;;;4.80;2.40;;;20.80;99.90;;;;;;5080735;28;20470;-73
2023/06/09 03:21:04;;;;;;;3.87;2.30;;;20.90;99.90;;;;;;5077289;28;20423;-74
2023/06/09 03:23:34;;;;;;;3.17;2.25;;;20.90;99.90;;;;;;5080110;28;20445;-74
2023/06/09 03:26:00;;;;;;;3.53;2.35;;;21.00;99.90;;;;;;5077953;28;20658;-74
2023/06/09 03:28:26;;;;;;;4.78;2.10;;;21.00;99.90;;;;;;5080779;28;20413;-74
2023/06/09 03:30:55;;;;;;;4.40;2.47;;;21.00;99.90;;;;;;5060989;28;20406;-74
2023/06/09 03:33:21;;;;;;;3.95;2.17;;;21.10;99.90;;;;;;5060897;28;20413;-74
2023/06/09 03:35:49;;;;;;;3.72;2.30;;;21.10;99.90;;;;;;5077740;28;21121;-74
2023/06/09 03:38:16;;;;;;;3.95;2.30;;;21.20;99.90;;;;;;5067864;28;20409;-74
2023/06/09 03:40:42;;;;;;;3.50;2.20;;;21.20;99.90;;;;;;5090349;27;20500;-74
2023/06/09 03:43:10;;;;;;;5.30;2.40;;;21.30;99.90;;;;;;5061113;28;20422;-74
2023/06/09 03:45:39;;;;;;;3.40;2.20;;;21.30;99.90;;;;;;5065103;28;20433;-75
2023/06/09 03:48:06;;;;;;;6.03;2.50;;;21.30;99.90;;;;;;5043231;28;20405;-75
2023/06/09 03:50:33;;;;;;;3.97;2.47;;;21.40;99.90;;;;;;5078955;28;20402;-74
2023/06/09 03:53:00;;;;;;;3.43;2.20;;;21.40;99.90;;;;;;5060024;28;20433;-75
2023/06/09 03:55:29;;;;;;;2.70;2.00;;;21.50;99.90;;;;;;5064455;28;20757;-74
2023/06/09 03:57:56;;;;;;;4.28;2.20;;;21.60;99.90;;;;;;5059519;28;20406;-74
2023/06/09 04:00:22;;;;;;;4.47;2.53;;;21.50;99.90;;;;;;5062224;28;20455;-74
2023/06/09 04:02:48;;;;;;;5.60;2.20;;;21.60;99.90;;;;;;5062306;28;20465;-74
2023/06/09 04:05:15;;;;;;;5.20;2.40;;;21.70;99.90;;;;;;5060210;28;20426;-74
2023/06/09 04:07:42;;;;;;;3.80;2.20;;;21.70;99.90;;;;;;5062283;28;20420;-74
2023/06/09 04:10:08;;;;;;;3.67;2.40;;;21.70;99.90;;;;;;5057527;28;20573;-74
2023/06/09 04:12:35;;;;;;;4.40;2.30;;;21.70;99.90;;;;;;5075642;28;20539;-75
2023/06/09 04:15:01;;;;;;;4.38;2.67;;;21.80;99.90;;;;;;5095502;27;20489;-74
2023/06/09 04:17:27;;;;;;;3.40;2.20;;;21.80;99.90;;;;;;5054225;28;20440;-75
2023/06/09 04:19:54;;;;;;;6.93;2.50;;;21.90;99.90;;;;;;5073403;28;20411;-74
2023/06/09 04:22:21;;;;;;;5.60;2.38;;;21.90;99.90;;;;;;5078972;28;20402;-74
2023/06/09 04:24:47;;;;;;;4.70;2.40;;;21.90;99.90;;;;;;5074093;28;20462;-75
2023/06/09 04:27:15;;;;;;;5.67;2.50;;;21.90;99.90;;;;;;5060398;28;20409;-75
2023/06/09 04:29:44;;;;;;;6.63;2.60;;;21.90;99.90;;;;;;5060467;28;20450;-74
2023/06/09 04:32:11;;;;;;;4.85;2.60;;;21.90;99.90;;;;;;5061026;28;20439;-74
2023/06/09 04:34:40;;;;;;;3.22;2.40;;;21.90;99.90;;;;;;5043622;28;20405;-74
2023/06/09 04:37:10;;;;;;;4.30;2.30;;;21.90;99.90;;;;;;5077806;28;21004;-74
2023/06/09 04:39:36;;;;;;;4.43;2.50;;;22.00;99.90;;;;;;5056418;28;20406;-75
2023/06/09 04:42:05;;;;;;;5.15;2.30;;;21.90;99.90;;;;;;5076198;28;20922;-74
2023/06/09 04:44:32;;;;;;;3.55;2.20;;;21.90;99.90;;;;;;5077509;28;20409;-74
2023/06/09 04:47:02;;;;;;;3.60;2.10;;;22.00;99.90;;;;;;5092110;27;20410;-73
2023/06/09 04:49:30;;;;;;;5.38;2.33;;;22.00;99.90;;;;;;5057994;28;20512;-73
2023/06/09 04:51:59;;;;;;;3.47;2.20;;;22.00;99.90;;;;;;5080468;28;20449;-75
2023/06/09 04:54:29;;;;;;;2.93;2.17;;;22.00;99.90;;;;;;5062170;28;20411;-75
2023/06/09 04:56:57;;;;;;;5.30;2.38;;;22.00;99.90;;;;;;5074264;28;20414;-75
2023/06/09 04:59:27;;;;;;;3.45;2.17;;;22.00;99.90;;;;;;5076187;28;20416;-74
2023/06/09 05:01:53;;;;;;;3.53;2.40;;;22.10;99.90;;;;;;5079972;28;20482;-75
2023/06/09 05:04:19;;;;;;;2.78;2.20;;;22.10;99.90;;;;;;5057417;28;20424;-73
2023/06/09 05:06:46;;;;;;;4.93;2.20;;;22.20;99.90;;;;;;5074983;28;20439;-73
2023/06/09 05:09:12;;;;;;;6.43;2.50;;;22.10;99.90;;;;;;5077297;28;20421;-73
2023/06/09 05:11:38;;;;;;;4.80;2.53;;;22.20;99.90;;;;;;5057166;28;20464;-73
2023/06/09 05:14:05;;;;;;;4.40;2.50;;;22.20;99.90;;;;;;5076985;28;20743;-73
2023/06/09 05:16:35;;;;;;;3.95;2.50;;;22.20;99.90;;;;;;5076703;28;20432;-75
2023/06/09 05:19:02;;;;;;;3.67;2.30;;;22.20;99.90;;;;;;5072505;28;20407;-75
2023/06/09 05:21:28;;;;;;;5.68;2.40;;;22.20;99.90;;;;;;5060451;28;20420;-74
2023/06/09 05:23:55;;;;;;;4.70;2.55;;;22.20;99.90;;;;;;5091532;28;20423;-74
2023/06/09 05:26:21;;;;;;;5.00;2.42;;;22.20;99.90;;;;;;5070175;28;20812;-74
2023/06/09 05:28:48;;;;;;;6.07;2.50;;;22.10;99.90;;;;;;5070324;28;20439;-74
2023/06/09 05:31:19;;;;;;;4.67;2.50;;;22.10;99.90;;;;;;5055667;28;21379;-73
2023/06/09 05:33:46;;;;;;;3.10;2.63;;;22.20;99.90;;;;;;5070221;28;20421;-73
2023/06/09 05:36:12;;;;;;;5.55;2.60;;;22.20;99.90;;;;;;5093594;28;20407;-74
2023/06/09 05:38:39;;;;;;;4.75;3.00;;;22.20;99.90;;;;;;5091699;27;20406;-74
2023/06/09 05:41:05;;;;;;;4.35;2.83;;;22.20;99.90;;;;;;5059655;28;21069;-74
2023/06/09 05:43:32;;;;;;;6.32;2.53;;;22.30;99.90;;;;;;5076240;28;20492;-74
2023/06/09 05:45:58;;;;;;;4.07;2.65;;;22.40;99.90;;;;;;5063417;28;20422;-74
2023/06/09 05:48:25;;;;;;;5.22;3.00;;;22.40;99.90;;;;;;5077054;28;20516;-74
2023/06/09 05:50:51;;;;;;;5.32;2.83;;;22.50;99.90;;;;;;5079538;28;20438;-74
2023/06/09 05:53:20;;;;;;;6.68;3.03;;;22.50;99.90;;;;;;5078586;28;20407;-74
2023/06/09 05:55:47;;;;;;;5.18;3.13;;;22.60;99.90;;;;;;5079081;28;20417;-74
2023/06/09 05:58:15;;;;;;;7.32;3.30;;;22.70;99.90;;;;;;5078073;28;20405;-74
2023/06/09 06:00:41;;;;;;;4.18;3.40;;;22.70;99.90;;;;;;5079998;28;20896;-74
2023/06/09 06:03:09;;;;;;;3.95;3.22;;;22.70;99.90;;;;;;5078844;28;20412;-74
2023/06/09 06:05:35;;;;;;;4.43;3.17;;;22.70;99.90;;;;;;5083163;28;20413;-74
2023/06/09 06:08:01;;;;;;;5.25;3.63;;;22.70;99.90;;;;;;5079311;28;20611;-74
2023/06/09 06:10:28;;;;;;;6.30;3.72;;;22.80;99.90;;;;;;5060791;28;20409;-74
2023/06/09 06:12:57;;;;;;;6.07;3.70;;;22.80;99.90;;;;;;5065965;28;20398;-74
2023/06/09 06:15:24;;;;;;;5.30;3.45;;;22.80;99.90;;;;;;5067105;28;20903;-75
2023/06/09 06:17:50;;;;;;;4.00;3.22;;;22.80;99.90;;;;;;5080742;28;20409;-74
2023/06/09 06:20:18;;;;;;;8.35;4.05;;;22.90;99.90;;;;;;5060056;28;20411;-74
2023/06/09 06:22:44;;;;;;;4.93;3.80;;;22.90;99.90;;;;;;5080532;28;20502;-74
2023/06/09 06:25:13;;;;;;;5.75;4.00;;;23.00;99.90;;;;;;5078494;28;20410;-74
2023/06/09 06:27:42;;;;;;;6.90;4.10;;;23.10;99.90;;;;;;5055838;28;20924;-74
2023/06/09 06:30:09;;;;;;;5.60;4.28;;;23.10;99.90;;;;;;5063650;28;21003;-74
2023/06/09 06:32:48;;;;;;;6.80;4.00;;;23.20;99.90;;;;;;5061213;28;20429;-74
2023/06/09 06:35:29;;;;;;;7.05;4.00;;;23.20;99.90;;;;;;5061998;28;20412;-76
2023/06/09 06:37:58;;;;;;;5.53;3.80;;;23.20;99.90;;;;;;5062697;28;20438;-76
2023/06/09 06:40:26;;;;;;;6.45;3.63;;;23.20;99.90;;;;;;5059939;28;21373;-74
2023/06/09 06:42:52;;;;;;;6.22;3.42;;;23.30;99.90;;;;;;5078459;28;20485;-74
2023/06/09 06:45:19;;;;;;;6.22;3.40;;;23.30;99.90;;;;;;5075739;28;20777;-75
2023/06/09 06:47:46;;;;;;;5.28;3.58;;;23.40;99.90;;;;;;5045635;28;20985;-75
2023/06/09 06:50:13;;;;;;;4.47;3.60;;;23.50;99.90;;;;;;5044913;28;21096;-75
2023/06/09 06:52:40;;;;;;;4.45;3.60;;;23.50;99.90;;;;;;5065985;28;20450;-75
2023/06/09 06:55:08;;;;;;;4.90;3.63;;;23.50;99.90;;;;;;5092474;27;20406;-75
2023/06/09 06:57:38;;;;;;;6.47;3.60;;;23.60;99.90;;;;;;5075588;28;20415;-76
2023/06/09 07:00:09;;;;;;;4.93;3.45;;;23.60;99.90;;;;;;5078758;28;20414;-75
2023/06/09 07:02:36;;;;;;;5.35;3.40;;;23.70;99.90;;;;;;5063340;28;20418;-74
2023/06/09 07:05:03;;;;;;;6.22;3.45;;;23.80;99.90;;;;;;5062058;28;20910;-74
2023/06/09 07:07:29;;;;;;;5.45;3.30;;;23.90;99.90;;;;;;5076993;28;20405;-74
2023/06/09 07:09:55;;;;;;;5.77;3.00;;;24.00;99.90;;;;;;5081736;28;20418;-74
2023/06/09 07:12:22;;;;;;;4.20;2.70;;;24.10;99.90;;;;;;5077637;28;20451;-74
2023/06/09 07:14:48;;;;;;;3.25;2.50;;;24.20;99.90;;;;;;5076388;28;21287;-76
2023/06/09 07:17:14;;;;;;;4.65;2.70;;;24.20;99.90;;;;;;5063825;28;20489;-72
2023/06/09 07:19:41;;;;;;;5.68;2.72;;;24.30;99.90;;;;;;5094380;27;20496;-73
2023/06/09 07:22:07;;;;;;;4.95;2.50;;;24.40;99.90;;;;;;5066258;28;20807;-73
2023/06/09 07:24:34;;;;;;;4.60;2.53;;;24.50;99.90;;;;;;5078516;28;20431;-73
2023/06/09 07:27:00;;;;;;;4.25;2.70;;;24.60;99.90;;;;;;5081792;28;20491;-75
2023/06/09 07:29:27;;;;;;;4.60;2.78;;;24.70;99.90;;;;;;5074319;28;20417;-75
2023/06/09 07:31:53;;;;;;;8.95;2.88;;;24.70;99.90;;;;;;5076343;28;20821;-74
2023/06/09 07:34:20;;;;;;;6.30;3.08;;;24.90;99.90;;;;;;5074518;28;20410;-73
2023/06/09 07:36:50;;;;;;;4.90;3.10;;;24.90;99.90;;;;;;5062212;28;20476;-73
2023/06/09 07:39:17;;;;;;;4.90;3.55;;;25.00;99.90;;;;;;5082930;28;20411;-73
2023/06/09 07:41:43;;;;;;;5.18;3.00;;;25.10;99.90;;;;;;5078116;28;20840;-73
2023/06/09 07:44:10;;;;;;;4.93;3.20;;;25.10;99.90;;;;;;5059068;28;20417;-73
2023/06/09 07:46:36;;;;;;;4.45;3.00;;;25.20;99.90;;;;;;5079785;28;20405;-73
2023/06/09 07:49:03;;;;;;;4.53;3.03;;;25.30;99.90;;;;;;5072471;28;20405;-73
2023/06/09 07:51:29;;;;;;;4.50;2.90;;;25.30;99.90;;;;;;5080360;28;20437;-75
2023/06/09 07:53:56;;;;;;;4.10;2.97;;;25.40;99.90;;;;;;5057791;28;20410;-76
2023/06/09 07:56:23;;;;;;;5.00;2.73;;;25.50;99.90;;;;;;5064709;28;20415;-75
2023/06/09 07:58:49;;;;;;;5.30;3.03;;;25.70;99.90;;;;;;5075563;28;20789;-75
2023/06/09 08:01:16;;;;;;;3.67;2.83;;;25.80;99.90;;;;;;5064218;28;20417;-75
2023/06/09 08:03:42;;;;;;;4.15;2.70;;;26.00;99.90;;;;;;5045684;28;20406;-75
2023/06/09 08:06:08;;;;;;;7.38;2.55;;;26.00;99.90;;;;;;5073785;28;20421;-75
2023/06/09 08:08:37;;;;;;;6.13;2.90;;;26.10;99.90;;;;;;5064249;28;20466;-75
2023/06/09 08:11:03;;;;;;;5.03;2.95;;;26.10;99.90;;;;;;5072479;28;21679;-75
2023/06/09 08:13:30;;;;;;;4.40;2.97;;;26.20;99.90;;;;;;5076346;28;20414;-75
2023/06/09 08:15:56;;;;;;;4.63;3.22;;;26.10;99.90;;;;;;5078808;28;20415;-75
2023/06/09 08:18:23;;;;;;;4.50;2.95;;;26.20;99.90;;;;;;5064620;28;20420;-75
2023/06/09 08:20:49;;;;;;;5.60;3.07;;;26.40;99.90;;;;;;5059681;28;20946;-75
2023/06/09 08:23:20;;;;;;;4.60;2.90;;;26.40;99.90;;;;;;5074735;28;21318;-75
2023/06/09 08:25:47;;;;;;;6.15;2.90;;;26.40;99.90;;;;;;5055823;28;20419;-75
2023/06/09 08:28:14;;;;;;;3.33;2.90;;;26.40;99.90;;;;;;5077125;28;20482;-75
2023/06/09 08:30:41;;;;;;;4.45;2.60;;;26.50;99.90;;;;;;5076160;28;20414;-75
2023/06/09 08:33:07;;;;;;;5.00;2.80;;;26.60;99.90;;;;;;5055828;28;20432;-75
2023/06/09 08:35:34;;;;;;;4.18;2.78;;;26.50;99.90;;;;;;5058497;28;20439;-75
2023/06/09 08:38:00;;;;;;;3.67;2.50;;;26.70;99.90;;;;;;5080205;28;20491;-75
2023/06/09 08:40:28;;;;;;;3.83;2.70;;;26.80;99.90;;;;;;5077536;28;20401;-75
2023/06/09 08:42:59;;;;;;;4.47;2.60;;;26.90;99.90;;;;;;5057042;28;20412;-75
2023/06/09 08:45:27;;;;;;;5.53;2.78;;;27.00;99.90;;;;;;5084274;28;20791;-75
2023/06/09 08:47:56;;;;;;;5.03;2.50;;;27.00;99.90;;;;;;5075031;28;20416;-75
2023/06/09 08:50:30;;;;;;;3.20;2.28;;;27.00;99.90;;;;;;5083636;28;20420;-75
2023/06/09 08:52:57;;;;;;;3.28;2.15;;;27.10;99.90;;;;;;5077532;28;20844;-75
2023/06/09 08:55:24;;;;;;;6.32;2.40;;;27.30;99.90;;;;;;5060259;28;20503;-75
2023/06/09 08:57:51;;;;;;;2.72;2.10;;;27.40;99.90;;;;;;5062669;28;20421;-74
2023/06/09 09:00:18;;;;;;;4.18;2.50;;;27.40;99.90;;;;;;5057128;28;20413;-75
2023/06/09 09:02:44;;;;;;;3.53;2.37;;;27.40;99.90;;;;;;5089699;27;20441;-75
2023/06/09 09:05:11;;;;;;;2.63;2.05;;;27.40;99.90;;;;;;5092604;28;20421;-75
2023/06/09 09:07:40;;;;;;;4.72;2.30;;;27.50;99.90;;;;;;5056772;28;20421;-75
2023/06/09 09:10:07;;;;;;;3.17;2.20;;;27.80;99.90;;;;;;5070693;28;20558;-75
2023/06/09 09:12:51;;;;;;;5.33;2.60;;;27.80;99.90;;;;;;5073486;28;21104;-75
2023/06/09 09:15:23;;;;;;;3.28;2.22;;;28.10;99.90;;;;;;5073508;28;20406;-75
2023/06/09 09:17:49;;;;;;;4.40;2.28;;;28.30;99.90;;;;;;5076525;28;20401;-75
2023/06/09 09:20:16;;;;;;;5.20;2.40;;;28.50;99.90;;;;;;5058258;28;20419;-75
2023/06/09 09:22:50;;;;;;;4.57;2.30;;;28.50;99.90;;;;;;5073427;28;20889;-74
2023/06/09 09:25:28;;;;;;;3.95;2.30;;;28.50;99.90;;;;;;5077982;28;20410;-75
2023/06/09 09:28:09;;;;;;;5.20;2.58;;;28.60;99.90;;;;;;5076680;28;20825;-75
2023/06/09 09:30:48;;;;;;;4.40;2.30;;;28.50;99.90;;;;;;5062102;28;20418;-75
2023/06/09 09:33:21;;;;;;;4.47;2.35;;;28.60;99.90;;;;;;5058272;28;20413;-75
2023/06/09 09:35:57;;;;;;;3.60;2.20;;;28.80;99.90;;;;;;5073745;28;20417;-75
2023/06/09 09:38:27;;;;;;;4.22;2.30;;;28.50;99.90;;;;;;5043239;28;21176;-75
2023/06/09 09:40:59;;;;;;;3.73;2.20;;;28.40;99.90;;;;;;5074755;28;20455;-75
2023/06/09 09:43:29;;;;;;;3.97;2.17;;;28.50;99.90;;;;;;5060688;28;20419;-75
2023/06/09 09:46:06;;;;;;;3.80;2.33;;;28.60;99.90;;;;;;5058022;28;20445;-75
2023/06/09 09:48:38;;;;;;;3.90;2.20;;;28.60;99.90;;;;;;5078579;28;20936;-75
2023/06/09 09:51:08;;;;;;;4.72;2.30;;;28.70;99.90;;;;;;5045282;28;20440;-75
2023/06/09 09:53:35;;;;;;;4.03;2.27;;;28.80;99.90;;;;;;5059822;28;20496;-74
2023/06/09 09:56:02;;;;;;;3.38;2.20;;;29.00;99.90;;;;;;5055810;28;20928;-75
2023/06/09 09:58:35;;;;;;;3.45;2.20;;;29.10;99.90;;;;;;5075749;28;20496;-74
2023/06/09 10:01:07;;;;;;;5.50;2.30;;;29.10;99.90;;;;;;5058153;28;20414;-75
2023/06/09 10:03:37;;;;;;;2.92;2.20;;;29.10;99.90;;;;;;5091619;28;20415;-75
2023/06/09 10:06:09;;;;;;;5.25;2.45;;;29.20;99.90;;;;;;5057668;28;20412;-75
2023/06/09 10:08:39;;;;;;;3.67;2.07;;;29.40;99.90;;;;;;5059190;28;20498;-75
2023/06/09 10:11:07;;;;;;;3.80;2.20;;;29.30;99.90;;;;;;5094500;28;20539;-75
2023/06/09 10:13:33;;;;;;;3.58;2.10;;;29.40;99.90;;;;;;5056212;28;20410;-75
2023/06/09 10:16:00;;;;;;;4.63;2.60;;;29.50;99.90;;;;;;5065492;28;20411;-76
2023/06/09 10:18:27;;;;;;;4.85;2.40;;;29.50;99.90;;;;;;5065565;28;20460;-75
2023/06/09 10:20:55;;;;;;;4.83;2.40;;;29.50;99.90;;;;;;5039712;28;20494;-75
2023/06/09 10:23:23;;;;;;;2.75;2.30;;;29.60;99.90;;;;;;5070657;28;20849;-75
2023/06/09 10:25:50;;;;;;;4.68;2.40;;;29.60;99.90;;;;;;5060512;28;20571;-75
2023/06/09 10:28:19;;;;;;;5.55;2.40;;;29.70;99.90;;;;;;5061281;28;20425;-75
2023/06/09 10:30:49;;;;;;;4.10;2.47;;;29.70;99.90;;;;;;5074916;28;20410;-75
2023/06/09 10:33:19;;;;;;;3.05;2.20;;;29.70;99.90;;;;;;5051673;28;20421;-75
2023/06/09 10:35:49;;;;;;;5.25;2.42;;;29.60;99.90;;;;;;5072104;28;20409;-75
2023/06/09 10:38:40;;;;;;;3.47;2.30;;;29.60;99.90;;;;;;5058296;28;20422;-75
2023/06/09 10:41:37;;;;;;;7.37;2.27;;;29.60;99.90;;;;;;5072657;28;20422;-75
2023/06/09 10:44:22;;;;;;;3.27;2.37;;;29.60;99.90;;;;;;5055024;28;20415;-76
2023/06/09 10:46:52;;;;;;;3.45;2.65;;;29.70;99.90;;;;;;5058379;28;20845;-75
2023/06/09 10:49:25;;;;;;;3.45;2.25;;;29.70;99.90;;;;;;5053864;28;20434;-75
2023/06/09 10:51:52;;;;;;;5.68;2.47;;;29.60;99.90;;;;;;5088605;27;20402;-75
2023/06/09 10:54:20;;;;;;;4.78;2.30;;;29.50;99.90;;;;;;5072627;28;20437;-75
2023/06/09 10:56:54;;;;;;;4.40;2.35;;;29.50;99.90;;;;;;5069630;28;20522;-75
2023/06/09 10:59:26;;;;;;;6.15;2.45;;;29.50;99.90;;;;;;5054137;28;20970;-75
2023/06/09 11:02:05;;;;;;;2.88;2.33;;;29.40;99.90;;;;;;5062363;28;20920;-75
2023/06/09 11:04:46;;;;;;;4.13;2.30;;;29.40;99.90;;;;;;5059436;28;20476;-75
2023/06/09 11:07:39;;;;;;;3.55;2.13;;;29.40;99.90;;;;;;5077242;28;20468;-75
2023/06/09 11:10:08;;;;;;;3.95;2.33;;;29.30;99.90;;;;;;5074081;28;20857;-75
2023/06/09 11:12:37;;;;;;;6.50;2.35;;;29.20;99.90;;;;;;5075769;28;20424;-75
2023/06/09 11:15:07;;;;;;;6.35;2.75;;;29.20;99.90;;;;;;5054176;28;20466;-75
2023/06/09 11:17:42;;;;;;;4.32;2.40;;;29.20;99.90;;;;;;5075055;28;20405;-75
2023/06/09 11:20:09;;;;;;;6.15;2.60;;;29.10;99.90;;;;;;5074024;28;20422;-75
2023/06/09 11:22:41;;;;;;;4.00;2.25;;;29.10;99.90;;;;;;5054915;28;20444;-75
2023/06/09 11:25:28;;;;;;;6.22;2.50;;;29.00;99.90;;;;;;5061295;28;20456;-75
2023/06/09 11:27:58;;;;;;;4.18;2.45;;;29.10;99.90;;;;;;5052677;28;20410;-75
2023/06/09 11:30:32;;;;;;;3.47;2.35;;;29.00;99.90;;;;;;5073764;28;20419;-75
2023/06/09 11:33:01;;;;;;;4.57;2.40;;;29.00;99.90;;;;;;5072696;28;20790;-76
2023/06/09 11:35:40;;;;;;;4.82;2.60;;;29.00;99.90;;;;;;5068399;28;20847;-75
2023/06/09 11:38:09;;;;;;;5.75;2.42;;;29.00;99.90;;;;;;5076266;28;20428;-75
2023/06/09 11:40:40;;;;;;;4.40;2.60;;;28.90;99.90;;;;;;5051401;28;20411;-75
2023/06/09 11:43:09;;;;;;;5.18;2.50;;;29.00;99.90;;;;;;5040647;28;20814;-75
2023/06/09 11:45:37;;;;;;;3.92;2.63;;;29.00;99.90;;;;;;5071780;28;20427;-75
2023/06/09 11:48:07;;;;;;;6.40;2.83;;;28.90;99.90;;;;;;5075592;28;20425;-75
2023/06/09 11:50:46;;;;;;;4.75;2.92;;;28.90;99.90;;;;;;5056024;28;20406;-75
2023/06/09 11:53:20;;;;;;;4.60;2.60;;;28.90;99.90;;;;;;5040210;28;20413;-75
2023/06/09 11:55:46;;;;;;;4.70;2.60;;;28.90;99.90;;;;;;5073886;28;20410;-75
2023/06/09 11:58:16;;;;;;;4.32;2.95;;;28.90;99.90;;;;;;5058231;28;20855;-75
2023/06/09 12:00:45;;;;;;;8.07;2.87;;;29.00;99.90;;;;;;5082072;28;20405;-75
2023/06/09 12:03:18;;;;;;;9.25;3.22;;;29.00;99.90;;;;;;5079257;28;20942;-74
2023/06/09 12:05:52;;;;;;;3.72;2.60;;;29.00;99.90;;;;;;5091454;27;20825;-74
2023/06/09 12:08:19;;;;;;;9.43;2.77;;;28.90;99.90;;;;;;5092636;27;20421;-74
2023/06/09 12:10:45;;;;;;;7.15;2.92;;;28.80;99.90;;;;;;5077098;28;20439;-74
2023/06/09 12:13:12;;;;;;;6.72;2.92;;;28.80;99.90;;;;;;5059772;28;20775;-74
2023/06/09 12:15:41;;;;;;;5.15;2.83;;;28.80;99.90;;;;;;5070060;28;20408;-74
2023/06/09 12:18:07;;;;;;;6.82;2.88;;;28.70;99.90;;;;;;5074423;28;20772;-74
2023/06/09 12:20:37;;;;;;;5.35;2.75;;;28.70;99.90;;;;;;5065183;28;20436;-74
2023/06/09 12:23:14;;;;;;;4.15;2.72;;;28.80;99.90;;;;;;5059500;28;20412;-74
2023/06/09 12:25:49;;;;;;;5.22;2.80;;;28.70;99.90;;;;;;5043992;28;21023;-74
2023/06/09 12:28:29;;;;;;;4.60;3.08;;;28.70;99.90;;;;;;5058701;28;20396;-74
2023/06/09 12:31:06;;;;;;;5.20;2.95;;;28.60;99.90;;;;;;5060983;28;20428;-74
2023/06/09 12:33:33;;;;;;;5.35;2.92;;;28.70;99.90;;;;;;5075175;28;20771;-74
2023/06/09 12:36:11;;;;;;;5.30;3.00;;;28.70;99.90;;;;;;5043398;28;20404;-74
2023/06/09 12:38:43;;;;;;;5.28;2.90;;;28.70;99.90;;;;;;5076782;28;20908;-74
2023/06/09 12:41:13;;;;;;;5.83;3.00;;;28.60;99.90;;;;;;5079481;28;20568;-74
2023/06/09 12:43:59;;;;;;;6.55;2.90;;;28.60;99.90;;;;;;5082192;28;20417;-74
2023/06/09 12:46:36;;;;;;;5.40;2.60;;;28.60;99.90;;;;;;5069884;28;20413;-74
2023/06/09 12:49:05;;;;;;;6.45;2.78;;;28.60;99.90;;;;;;5042195;28;20410;-74
2023/06/09 12:51:45;;;;;;;6.07;2.92;;;28.60;99.90;;;;;;5084763;28;20427;-74
2023/06/09 12:54:13;;;;;;;5.82;2.88;;;28.50;99.90;;;;;;5091097;28;20409;-74
2023/06/09 12:56:40;;;;;;;7.85;3.00;;;28.50;99.90;;;;;;5052453;28;20485;-74
2023/06/09 12:59:08;;;;;;;5.87;2.80;;;28.50;99.90;;;;;;5054778;28;21022;-74
2023/06/09 13:01:35;;;;;;;4.32;2.75;;;28.60;99.90;;;;;;5071897;28;20412;-74